createdAt,value
2023-04-10T00:00:24.498Z,66.63
2023-04-10T00:02:52.617Z,67.09
2023-04-10T00:05:20.583Z,66.91
2023-04-10T00:07:48.625Z,65.86
2023-04-10T00:10:16.990Z,66.24
2023-04-10T00:12:44.774Z,67.21
2023-04-10T00:15:12.619Z,67.06
2023-04-10T00:17:40.778Z,67.05
2023-04-10T00:20:09.169Z,67.30
2023-04-10T00:22:37.031Z,68.64
2023-04-10T00:25:06.731Z,68.25
2023-04-10T00:27:34.586Z,69.53
2023-04-10T00:30:02.880Z,69.11
2023-04-10T00:32:30.838Z,69.33
2023-04-10T00:34:58.851Z,70.37
2023-04-10T00:37:27.563Z,70.15
2023-04-10T00:39:55.533Z,71.08
2023-04-10T00:42:23.407Z,70.88
2023-04-10T00:44:51.242Z,69.76
2023-04-10T00:47:19.182Z,70.74
2023-04-10T00:49:47.281Z,71.23
2023-04-10T00:52:15.273Z,71.77
2023-04-10T00:54:43.132Z,71.91
2023-04-10T00:57:11.545Z,70.24
2023-04-10T00:59:39.815Z,70.56
2023-04-10T01:02:07.769Z,70.39
2023-04-10T01:04:35.824Z,68.61
2023-04-10T01:07:30.268Z,70.30
2023-04-10T01:10:33.237Z,69.50
2023-04-10T01:13:23.363Z,69.76
2023-04-10T01:16:11.301Z,69.87
2023-04-10T01:18:49.150Z,70.19
2023-04-10T01:21:18.160Z,70.55
2023-04-10T01:24:04.464Z,71.37
2023-04-10T01:26:56.045Z,71.21
2023-04-10T01:29:29.571Z,71.19
2023-04-10T01:32:11.463Z,70.95
2023-04-10T01:34:57.421Z,71.52
2023-04-10T01:37:29.797Z,71.65
2023-04-10T01:40:04.325Z,72.51
2023-04-10T01:42:34.485Z,73.49
2023-04-10T01:45:06.677Z,73.60
2023-04-10T01:47:35.434Z,74.45
2023-04-10T01:50:04.859Z,74.99
2023-04-10T01:52:34.387Z,76.41
2023-04-10T01:55:24.578Z,77.24
2023-04-10T01:57:56.920Z,78.09
2023-04-10T02:00:26.076Z,78.16
2023-04-10T02:02:54.377Z,78.04
2023-04-10T02:05:29.378Z,78.80
2023-04-10T02:08:18.859Z,79.52
2023-04-10T02:11:13.344Z,80.58
2023-04-10T02:13:42.411Z,80.38
2023-04-10T02:16:13.689Z,80.72
2023-04-10T02:18:43.792Z,81.41
2023-04-10T02:21:12.162Z,82.03
2023-04-10T02:23:42.175Z,83.67
2023-04-10T02:26:10.431Z,83.39
2023-04-10T02:28:39.946Z,84.13
2023-04-10T02:31:08.070Z,84.73
2023-04-10T02:33:36.071Z,84.38
2023-04-10T02:36:04.112Z,83.98
2023-04-10T02:38:32.074Z,84.95
2023-04-10T02:41:00.243Z,85.08
2023-04-10T02:43:28.117Z,85.18
2023-04-10T02:45:56.261Z,85.61
2023-04-10T02:48:27.494Z,85.24
2023-04-10T02:50:59.996Z,85.63
2023-04-10T02:53:29.629Z,85.86
2023-04-10T02:56:00.764Z,87.26
2023-04-10T02:58:30.821Z,86.98
2023-04-10T03:00:59.830Z,86.89
2023-04-10T03:03:40.033Z,87.39
2023-04-10T03:06:09.743Z,87.76
2023-04-10T03:08:38.761Z,87.76
2023-04-10T03:11:08.465Z,86.80
2023-04-10T03:13:36.638Z,87.68
2023-04-10T03:16:04.729Z,86.41
2023-04-10T03:18:34.366Z,87.77
2023-04-10T03:21:02.866Z,86.34
2023-04-10T03:23:30.744Z,86.49
2023-04-10T03:25:58.658Z,87.17
2023-04-10T03:28:29.991Z,87.23
2023-04-10T03:30:57.873Z,86.79
2023-04-10T03:33:26.097Z,87.06
2023-04-10T03:35:53.989Z,86.62
2023-04-10T03:38:21.920Z,87.11
2023-04-10T03:40:50.464Z,87.51
2023-04-10T03:43:20.586Z,88.99
2023-04-10T03:45:49.100Z,87.68
2023-04-10T03:48:18.104Z,88.42
2023-04-10T03:50:48.159Z,87.74
2023-04-10T03:53:17.358Z,88.37
2023-04-10T03:55:46.294Z,87.49
2023-04-10T03:58:14.297Z,88.29
2023-04-10T04:00:42.300Z,87.41
2023-04-10T04:03:22.106Z,88.00
2023-04-10T04:06:01.920Z,89.28
2023-04-10T04:08:56.033Z,89.77
2023-04-10T04:11:40.385Z,88.26
2023-04-10T04:14:37.242Z,87.48
2023-04-10T04:17:37.826Z,86.95
2023-04-10T04:20:25.930Z,88.59
2023-04-10T04:23:12.479Z,88.61
2023-04-10T04:26:00.254Z,87.95
2023-04-10T04:28:47.422Z,88.39
2023-04-10T04:31:41.406Z,88.43
2023-04-10T04:34:47.356Z,88.89
2023-04-10T04:37:21.081Z,88.56
2023-04-10T04:40:08.053Z,89.46
2023-04-10T04:42:54.334Z,89.52
2023-04-10T04:45:37.872Z,89.19
2023-04-10T04:48:31.894Z,88.21
2023-04-10T04:51:12.649Z,87.74
2023-04-10T04:53:50.700Z,88.07
2023-04-10T04:56:51.076Z,88.87
2023-04-10T04:59:38.380Z,87.83
2023-04-10T05:02:26.627Z,87.62
2023-04-10T05:05:06.570Z,87.88
2023-04-10T05:08:00.675Z,87.96
2023-04-10T05:10:44.540Z,87.97
2023-04-10T05:13:32.567Z,87.38
2023-04-10T05:16:35.898Z,85.73
2023-04-10T05:19:16.394Z,85.17
2023-04-10T05:21:57.238Z,85.41
2023-04-10T05:24:44.684Z,83.97
2023-04-10T05:27:32.846Z,83.25
2023-04-10T05:30:00.738Z,82.88
2023-04-10T05:32:57.909Z,83.66
2023-04-10T05:35:48.725Z,81.66
2023-04-10T05:38:38.157Z,79.58
2023-04-10T05:41:26.573Z,79.33
2023-04-10T05:44:17.520Z,77.96
2023-04-10T05:47:08.648Z,78.27
2023-04-10T05:49:39.580Z,77.26
2023-04-10T05:52:33.444Z,76.75
2023-04-10T05:55:13.462Z,75.92
2023-04-10T05:58:00.117Z,74.07
2023-04-10T06:00:54.116Z,72.87
2023-04-10T06:03:42.998Z,73.42
2023-04-10T06:06:12.395Z,73.49
2023-04-10T06:08:41.583Z,73.34
2023-04-10T06:11:09.427Z,73.51
2023-04-10T06:13:37.544Z,72.71
2023-04-10T06:16:06.346Z,71.56
2023-04-10T06:18:34.932Z,71.05
2023-04-10T06:21:02.882Z,69.68
2023-04-10T06:23:30.888Z,67.50
2023-04-10T06:25:59.028Z,67.56
2023-04-10T06:28:27.151Z,65.72
2023-04-10T06:30:58.576Z,63.99
2023-04-10T06:33:32.355Z,64.50
2023-04-10T06:36:01.374Z,63.66
2023-04-10T06:38:31.237Z,62.10
2023-04-10T06:40:59.254Z,60.98
2023-04-10T06:43:28.290Z,59.60
2023-04-10T06:45:56.192Z,58.91
2023-04-10T06:48:24.087Z,61.05
2023-04-10T06:50:52.149Z,58.73
2023-04-10T06:53:19.970Z,58.70
2023-04-10T06:55:48.005Z,59.08
2023-04-10T06:58:16.597Z,58.09
2023-04-10T07:00:44.633Z,57.33
2023-04-10T07:03:12.573Z,57.08
2023-04-10T07:05:42.109Z,55.47
2023-04-10T07:08:10.233Z,53.99
2023-04-10T07:10:38.059Z,55.56
2023-04-10T07:13:05.811Z,53.77
2023-04-10T07:15:33.633Z,52.48
2023-04-10T07:18:01.673Z,53.53
2023-04-10T07:20:29.892Z,52.36
2023-04-10T07:22:57.877Z,52.55
2023-04-10T07:25:26.047Z,50.70
2023-04-10T07:27:53.847Z,52.63
2023-04-10T07:30:21.806Z,52.85
2023-04-10T07:32:50.073Z,51.15
2023-04-10T07:35:19.346Z,52.34
2023-04-10T07:37:53.098Z,50.80
2023-04-10T07:40:22.927Z,50.85
2023-04-10T07:42:53.971Z,51.27
2023-04-10T07:45:22.264Z,49.44
2023-04-10T07:47:50.118Z,50.04
2023-04-10T07:50:25.223Z,48.78
2023-04-10T07:52:56.526Z,51.50
2023-04-10T07:55:24.342Z,48.94
2023-04-10T07:57:52.419Z,49.49
2023-04-10T08:00:21.682Z,49.55
2023-04-10T08:02:49.697Z,48.34
2023-04-10T08:05:22.442Z,47.50
2023-04-10T08:07:50.523Z,48.53
2023-04-10T08:10:19.782Z,49.02
2023-04-10T08:12:48.415Z,49.89
2023-04-10T08:15:19.250Z,49.66
2023-04-10T08:17:47.601Z,50.12
2023-04-10T08:20:15.889Z,50.03
2023-04-10T08:22:44.060Z,50.58
2023-04-10T08:25:12.250Z,48.20
2023-04-10T08:27:40.597Z,49.86
2023-04-10T08:30:09.186Z,48.01
2023-04-10T08:32:38.464Z,48.93
2023-04-10T08:35:06.724Z,47.53
2023-04-10T08:37:34.601Z,47.38
2023-04-10T08:40:02.426Z,48.88
2023-04-10T08:42:32.210Z,46.91
2023-04-10T08:45:07.224Z,46.76
2023-04-10T08:47:39.067Z,46.40
2023-04-10T08:50:10.676Z,45.61
2023-04-10T08:52:49.072Z,46.05
2023-04-10T08:55:17.893Z,47.15
2023-04-10T08:58:00.017Z,45.53
2023-04-10T09:00:34.738Z,46.05
2023-04-10T09:03:05.456Z,45.81
2023-04-10T09:05:35.720Z,45.00
2023-04-10T09:08:05.416Z,45.42
2023-04-10T09:10:33.301Z,44.37
2023-04-10T09:13:01.297Z,46.10
2023-04-10T09:15:29.277Z,46.20
2023-04-10T09:18:04.094Z,44.53
2023-04-10T09:20:33.855Z,44.55
2023-04-10T09:23:23.684Z,44.25
2023-04-10T09:25:51.532Z,44.39
2023-04-10T09:28:22.392Z,44.23
2023-04-10T09:30:50.199Z,43.82
2023-04-10T09:33:28.163Z,43.87
2023-04-10T09:36:07.778Z,43.41
2023-04-10T09:38:36.209Z,44.09
2023-04-10T09:41:08.874Z,44.39
2023-04-10T09:43:39.329Z,44.45
2023-04-10T09:46:08.169Z,43.65
2023-04-10T09:48:41.199Z,43.38
2023-04-10T09:51:30.078Z,43.97
2023-04-10T09:53:59.154Z,44.07
2023-04-10T09:56:30.472Z,44.16
2023-04-10T09:59:00.479Z,42.32
2023-04-10T10:01:36.806Z,42.38
2023-04-10T10:04:05.447Z,44.93
2023-04-10T10:06:38.708Z,44.03
2023-04-10T10:09:09.954Z,42.88
2023-04-10T10:11:51.243Z,43.78
2023-04-10T10:14:22.064Z,43.79
2023-04-10T10:16:57.880Z,41.67
2023-04-10T10:19:31.825Z,43.24
2023-04-10T10:22:04.484Z,41.37
2023-04-10T10:24:34.470Z,41.27
2023-04-10T10:27:03.561Z,41.81
2023-04-10T10:29:36.041Z,41.98
2023-04-10T10:32:06.256Z,41.00
2023-04-10T10:34:35.991Z,41.86
2023-04-10T10:37:05.407Z,41.60
2023-04-10T10:39:48.288Z,40.91
2023-04-10T10:42:27.800Z,40.95
2023-04-10T10:45:19.563Z,41.21
2023-04-10T10:47:51.704Z,41.05
2023-04-10T10:50:22.252Z,41.01
2023-04-10T10:52:56.212Z,40.91
2023-04-10T10:55:36.748Z,40.32
2023-04-10T10:58:08.441Z,40.17
2023-04-10T11:01:07.865Z,40.56
2023-04-10T11:03:37.826Z,40.95
2023-04-10T11:06:12.396Z,39.98
2023-04-10T11:08:46.990Z,40.54
2023-04-10T11:11:23.809Z,38.89
2023-04-10T11:13:57.845Z,39.41
2023-04-10T11:16:36.037Z,38.78
2023-04-10T11:19:13.053Z,37.77
2023-04-10T11:22:10.741Z,38.30
2023-04-10T11:25:00.320Z,39.67
2023-04-10T11:27:42.752Z,39.27
2023-04-10T11:30:30.861Z,38.37
2023-04-10T11:33:00.687Z,38.07
2023-04-10T11:35:32.332Z,38.17
2023-04-10T11:38:10.463Z,38.98
2023-04-10T11:40:54.882Z,38.72
2023-04-10T11:43:22.592Z,38.17
2023-04-10T11:45:50.452Z,38.44
2023-04-10T11:48:18.476Z,39.28
2023-04-10T11:50:46.457Z,38.76
2023-04-10T11:53:21.905Z,38.10
2023-04-10T11:55:49.830Z,37.71
2023-04-10T11:58:24.738Z,37.74
2023-04-10T12:01:04.493Z,36.86
2023-04-10T12:03:40.378Z,37.13
2023-04-10T12:06:11.680Z,37.09
2023-04-10T12:08:51.196Z,37.06
2023-04-10T12:11:21.585Z,36.63
2023-04-10T12:13:53.359Z,35.75
2023-04-10T12:16:21.881Z,35.95
2023-04-10T12:18:50.390Z,36.18
2023-04-10T12:21:18.698Z,36.22
2023-04-10T12:23:46.429Z,35.43
2023-04-10T12:26:16.532Z,37.12
2023-04-10T12:28:55.490Z,35.94
2023-04-10T12:31:30.889Z,34.32
2023-04-10T12:33:59.600Z,36.16
2023-04-10T12:36:29.971Z,36.78
2023-04-10T12:39:03.102Z,36.35
2023-04-10T12:41:33.345Z,36.37
2023-04-10T12:44:14.819Z,36.54
2023-04-10T12:46:44.941Z,36.34
2023-04-10T12:49:17.250Z,35.31
2023-04-10T12:51:52.667Z,35.28
2023-04-10T12:54:34.446Z,36.31
2023-04-10T12:57:04.228Z,34.58
2023-04-10T12:59:32.855Z,35.74
2023-04-10T13:02:00.817Z,34.31
2023-04-10T13:04:31.844Z,34.75
2023-04-10T13:07:00.038Z,34.87
2023-04-10T13:09:27.904Z,34.96
2023-04-10T13:11:57.029Z,34.11
2023-04-10T13:14:24.967Z,35.40
2023-04-10T13:16:52.812Z,35.92
2023-04-10T13:19:20.781Z,34.80
2023-04-10T13:21:50.787Z,32.88
2023-04-10T13:24:18.667Z,33.95
2023-04-10T13:26:46.623Z,34.12
2023-04-10T13:29:14.524Z,32.90
2023-04-10T13:31:42.564Z,32.05
2023-04-10T13:34:10.405Z,32.70
2023-04-10T13:36:38.321Z,34.29
2023-04-10T13:39:06.254Z,33.73
2023-04-10T13:41:34.325Z,33.21
2023-04-10T13:44:02.184Z,32.81
2023-04-10T13:46:29.998Z,32.46
2023-04-10T13:48:58.340Z,32.76
2023-04-10T13:51:26.832Z,32.85
2023-04-10T13:53:54.703Z,31.60
2023-04-10T13:56:22.559Z,33.48
2023-04-10T13:58:50.351Z,33.50
2023-04-10T14:01:18.229Z,33.94
2023-04-10T14:03:46.495Z,33.77
2023-04-10T14:06:14.447Z,32.85
2023-04-10T14:08:42.468Z,31.85
2023-04-10T14:11:10.413Z,32.73
2023-04-10T14:13:38.436Z,33.52
2023-04-10T14:16:06.700Z,32.68
2023-04-10T14:18:34.647Z,32.51
2023-04-10T14:21:02.443Z,33.68
2023-04-10T14:23:30.539Z,32.53
2023-04-10T14:25:58.994Z,33.55
2023-04-10T14:28:27.461Z,32.69
2023-04-10T14:30:56.762Z,33.37
2023-04-10T14:33:25.650Z,33.39
2023-04-10T14:35:55.164Z,33.16
2023-04-10T14:38:23.078Z,34.15
2023-04-10T14:40:50.907Z,33.37
2023-04-10T14:43:19.658Z,33.21
2023-04-10T14:45:47.825Z,34.48
2023-04-10T14:48:16.044Z,34.20
2023-04-10T14:50:43.879Z,33.51
2023-04-10T14:53:11.844Z,34.46
2023-04-10T14:55:40.009Z,34.13
2023-04-10T14:58:09.241Z,34.60
2023-04-10T15:00:37.274Z,33.71
2023-04-10T15:03:15.304Z,34.88
2023-04-10T15:05:46.647Z,34.62
2023-04-10T15:08:14.477Z,33.90
2023-04-10T15:10:42.512Z,35.53
2023-04-10T15:13:12.778Z,34.76
2023-04-10T15:15:40.730Z,34.21
2023-04-10T15:18:09.594Z,34.78
2023-04-10T15:20:39.946Z,35.93
2023-04-10T15:23:08.419Z,34.54
2023-04-10T15:25:36.401Z,34.62
2023-04-10T15:28:04.365Z,36.07
2023-04-10T15:30:32.253Z,36.04
2023-04-10T15:33:00.369Z,36.00
2023-04-10T15:35:30.554Z,36.50
2023-04-10T15:37:58.488Z,36.24
2023-04-10T15:40:26.303Z,37.09
2023-04-10T15:42:54.102Z,35.06
2023-04-10T15:45:21.922Z,35.67
2023-04-10T15:47:49.836Z,35.53
2023-04-10T15:50:17.761Z,37.21
2023-04-10T15:52:45.698Z,36.22
2023-04-10T15:55:15.797Z,36.27
2023-04-10T15:57:47.586Z,36.22
2023-04-10T16:00:15.801Z,37.26
2023-04-10T16:02:44.072Z,36.27
2023-04-10T16:05:12.021Z,36.98
2023-04-10T16:07:42.216Z,35.92
2023-04-10T16:10:10.383Z,37.12
2023-04-10T16:12:38.878Z,37.27
2023-04-10T16:15:11.144Z,37.08
2023-04-10T16:17:39.877Z,36.65
2023-04-10T16:20:08.563Z,37.22
2023-04-10T16:22:36.751Z,37.06
2023-04-10T16:27:37.693Z,36.90
2023-04-10T16:30:06.674Z,37.13
2023-04-10T16:32:34.570Z,36.66
2023-04-10T16:35:02.380Z,37.48
2023-04-10T16:37:30.269Z,37.08
2023-04-10T16:39:58.236Z,38.13
2023-04-10T16:42:26.137Z,37.02
2023-04-10T16:45:03.541Z,37.05
2023-04-10T16:47:41.102Z,37.37
2023-04-10T16:50:21.873Z,38.90
2023-04-10T16:52:51.824Z,37.84
2023-04-10T16:55:20.652Z,37.52
2023-04-10T16:57:49.268Z,36.54
2023-04-10T17:00:17.550Z,37.89
2023-04-10T17:02:46.431Z,37.70
2023-04-10T17:05:14.402Z,38.05
2023-04-10T17:07:43.821Z,38.90
2023-04-10T17:10:13.180Z,38.62
2023-04-10T17:12:43.522Z,39.51
2023-04-10T17:15:12.536Z,38.10
2023-04-10T17:17:40.733Z,38.39
2023-04-10T17:20:10.075Z,38.14
2023-04-10T17:22:39.407Z,39.02
